Terminal Aerodrome Forecast
Issued by NWS Cleveland, OH

Home | Current Version | Previous Version | Graphics & Text | Print | Product List | Glossary On
Versions: 1 2 3 4 5 6 7 8 9 10 11 12 13 14 15 16
000
FTUS41 KCLE 261739
TAFERI
TAF
KERI 261739Z 2618/2718 28010KT P6SM SCT020 OVC035
      TEMPO 2618/2621 OVC020
     FM270100 32005KT P6SM VCSH BKN025
     FM270600 VRB03KT P6SM BKN025
     FM271500 32006KT P6SM BKN035=

USA.gov is the U.S. government's official web portal to all federal, state and local government web resources and services.